Thunder radar more information blitzortung!


Radar de pluja more information rain snow radar


Visita la nostra xarxa de llocs de meteo:

Template documentation
and downloads

And another site



No particular awareness of the weather is required.    There are no Weather-warnings

Pagina Historial Weather Underground text

Diari Resum Setembre 26, 2017 Unitats:  Imperial    Mètric   Tant
« Previous Dia
SegĂźent Dia »
Diari Setmana Mensual Anual Personalitzada
  Maxima: Minima: Media:
Temperatura: 78.4 °F 58.5 °F 69.3 °F
Punt de rosada: 59.4 °F 52.5 °F 55.4 °F
Humitat: 83 % 44 % 63 %
Wind Speed: 12.7 mph 0 mph 3.3 mph
RĂ fegues de vent: 12.7 mph - -
Vent:- - SSW
Pression baro: 30.2 in 30.1 in -
Precipitacions: 0 in    
Historical Graphs
 
 
Dades de taula per Setembre 26, 2017
Temps Temperatura Punt de rosada Pression baro Vent Wind Speed RĂ fegues de vent Humitat Rainfall Rate (Hourly)
00:04 61.9 °F 54.7 °F 30.2 in Calm     77 % 0 in
00:20 59.7 °F 54 °F 30.2 in Calm     81 % 0 in
00:30 59.5 °F 53.8 °F 30.2 in WSW 2 mph 3 mph 81 % 0 in
00:40 59.4 °F 53.4 °F 30.2 in SW 2 mph 2 mph 81 % 0 in
00:50 59.2 °F 53.8 °F 30.2 in Calm   3 mph 82 % 0 in
01:00 59 °F 53.4 °F 30.1 in SW 2 mph 2 mph 82 % 0 in
01:10 59 °F 53.8 °F 30.1 in SW 1 mph 3 mph 83 % 0 in
01:20 59 °F 53.8 °F 30.1 in Calm   1 mph 83 % 0 in
01:30 59 °F 53.8 °F 30.1 in SW 1 mph 2 mph 83 % 0 in
01:40 59 °F 53.8 °F 30.2 in SW 2 mph 2 mph 83 % 0 in
01:45 59 °F 53.8 °F 30.2 in WSW 1 mph 2 mph 83 % 0 in
01:55 59 °F 53.8 °F 30.2 in Calm   2 mph 83 % 0 in
02:05 58.8 °F 53.8 °F 30.2 in Calm   1 mph 83 % 0 in
02:15 58.6 °F 53.4 °F 30.2 in Calm     83 % 0 in
02:25 58.8 °F 53.8 °F 30.2 in Calm   1 mph 83 % 0 in
02:35 58.8 °F 53.2 °F 30.2 in NW 1 mph 2 mph 82 % 0 in
02:45 58.8 °F 53.2 °F 30.2 in West 1 mph 2 mph 82 % 0 in
02:55 58.8 °F 53.2 °F 30.2 in Calm   1 mph 82 % 0 in
03:05 58.5 °F 52.5 °F 30.2 in WSW 1 mph 2 mph 81 % 0 in
03:15 58.6 °F 53.2 °F 30.2 in Calm   2 mph 82 % 0 in
03:25 59 °F 53.2 °F 30.2 in SW 1 mph 2 mph 81 % 0 in
03:35 59.7 °F 54 °F 30.2 in Calm   2 mph 81 % 0 in
03:45 60.1 °F 54.1 °F 30.2 in Calm   2 mph 81 % 0 in
03:55 61.5 °F 55.2 °F 30.2 in South 1 mph 2 mph 80 % 0 in
04:05 61 °F 54.3 °F 30.2 in Calm   2 mph 79 % 0 in
04:15 62.8 °F 55.8 °F 30.2 in SW 1 mph 2 mph 78 % 0 in
04:25 63.1 °F 55.8 °F 30.2 in South 2 mph 2 mph 77 % 0 in
04:35 63.1 °F 55.4 °F 30.2 in SW 1 mph 2 mph 76 % 0 in
04:45 64.8 °F 56.7 °F 30.2 in WSW 2 mph 2 mph 75 % 0 in
04:55 64.9 °F 56.5 °F 30.2 in ENE 1 mph 3 mph 74 % 0 in
05:05 65.3 °F 55.9 °F 30.2 in ENE 2 mph 2 mph 72 % 0 in
05:15 66.2 °F 56.5 °F 30.2 in ENE 3 mph 4 mph 71 % 0 in
05:25 66.6 °F 56.8 °F 30.2 in NE 3 mph 3 mph 71 % 0 in
05:35 67.1 °F 57 °F 30.2 in NE 1 mph 4 mph 70 % 0 in
05:45 68.4 °F 57.4 °F 30.2 in NE 1 mph 2 mph 68 % 0 in
05:55 67.8 °F 56.5 °F 30.2 in ENE 2 mph 4 mph 67 % 0 in
06:05 68.7 °F 56.8 °F 30.2 in East 2 mph 3 mph 66 % 0 in
11:10 69.4 °F 57.2 °F 30.2 in NE 3.3 mph 3.3 mph 65 % 0 in
11:15 69.1 °F 56.8 °F 30.2 in ENE 2.3 mph 2.6 mph 65 % 0 in
11:20 69.6 °F 56.8 °F 30.2 in ESE 3.5 mph 3.5 mph 64 % 0 in
11:25 70.2 °F 57 °F 30.2 in East 3.5 mph 3.5 mph 63 % 0 in
11:30 70.5 °F 57.4 °F 30.2 in ESE 3.6 mph 3.6 mph 63 % 0 in
11:35 70.5 °F 57.4 °F 30.2 in SSE 3.5 mph 3.5 mph 63 % 0 in
11:40 71.2 °F 57.6 °F 30.2 in ESE 4.6 mph 4.6 mph 62 % 0 in
11:45 72 °F 57.7 °F 30.2 in NNE 2.3 mph 2.4 mph 61 % 0 in
11:50 71.2 °F 57 °F 30.2 in NNE 3.5 mph 3.5 mph 61 % 0 in
11:55 70.9 °F 56.8 °F 30.2 in ESE 4.6 mph 4.6 mph 61 % 0 in
12:00 71.2 °F 57 °F 30.2 in ESE 2.3 mph 2.3 mph 61 % 0 in
12:05 71.8 °F 57 °F 30.2 in ESE 2.3 mph   60 % 0 in
12:10 72.5 °F 57.7 °F 30.2 in NNE 3.5 mph 3.5 mph 60 % 0 in
12:15 72.1 °F 57 °F 30.2 in ESE 4.6 mph 4.6 mph 59 % 0 in
12:20 72.5 °F 57.4 °F 30.2 in ESE 4.6 mph 4.6 mph 59 % 0 in
12:25 73 °F 57.9 °F 30.2 in ESE 3.5 mph 3.5 mph 59 % 0 in
12:30 73.2 °F 57.9 °F 30.2 in NW 2.3 mph 2.3 mph 59 % 0 in
12:35 73.8 °F 58.1 °F 30.2 in SSW 2.3 mph 2.3 mph 58 % 0 in
12:40 73.9 °F 58.3 °F 30.2 in WSW 1.6 mph 2 mph 58 % 0 in
12:45 74.7 °F 59.4 °F 30.2 in SW 5.8 mph 5.8 mph 59 % 0 in
12:50 75 °F 57.7 °F 30.2 in WSW 2.3 mph 2.3 mph 55 % 0 in
12:55 75.9 °F 59.2 °F 30.2 in WNW 5.8 mph 5.8 mph 56 % 0 in
13:00 76.1 °F 58.8 °F 30.2 in West 5.8 mph 5.8 mph 55 % 0 in
13:01 76.1 °F 58.8 °F 30.2 in SW 5.9 mph 5.9 mph 55 % 0 in
13:06 76.3 °F 58.5 °F 30.2 in WNW 3.5 mph 3.5 mph 54 % 0 in
13:11 76.3 °F 57.9 °F 30.2 in WNW 5.8 mph 5.8 mph 53 % 0 in
13:16 75 °F 57.2 °F 30.2 in SW 3.5 mph 3.5 mph 54 % 0 in
13:21 74.7 °F 56.8 °F 30.2 in SSW 3.5 mph 3.5 mph 54 % 0 in
13:26 75 °F 57.2 °F 30.2 in SW 4.6 mph 4.6 mph 54 % 0 in
13:31 76.1 °F 57.7 °F 30.2 in WSW 5.8 mph 5.8 mph 53 % 0 in
13:36 76.6 °F 58.3 °F 30.2 in SSW 5.8 mph 5.8 mph 53 % 0 in
13:46 77 °F 56.8 °F 30.1 in SW 4.6 mph 4.6 mph 50 % 0 in
13:51 76.1 °F 56.7 °F 30.1 in SSW 3.5 mph 3.5 mph 51 % 0 in
13:56 76.8 °F 56.8 °F 30.1 in WSW 4 mph 4 mph 50 % 0 in
14:01 76.1 °F 56.1 °F 30.1 in SW 6.9 mph 6.9 mph 50 % 0 in
14:06 75.7 °F 55.8 °F 30.1 in WSW 8.1 mph 8.1 mph 50 % 0 in
14:11 76.1 °F 55.6 °F 30.1 in SSW 5.8 mph 5.8 mph 49 % 0 in
14:16 77.2 °F 56.5 °F 30.1 in SSW 5.9 mph 5.9 mph 49 % 0 in
14:21 77.2 °F 55.9 °F 30.1 in South 3.5 mph 3.5 mph 48 % 0 in
14:26 77.2 °F 55.9 °F 30.1 in WSW 4.6 mph 4.6 mph 48 % 0 in
14:31 77.4 °F 56.1 °F 30.1 in WSW 4.6 mph 4.6 mph 48 % 0 in
14:36 77.2 °F 55.4 °F 30.1 in SSW 4.6 mph 4.6 mph 47 % 0 in
14:41 77.4 °F 55.6 °F 30.1 in SW 4.6 mph 4.6 mph 47 % 0 in
14:46 77 °F 55.2 °F 30.1 in South 5.8 mph 5.8 mph 47 % 0 in
14:51 77.5 °F 55.8 °F 30.1 in SW 4.6 mph 4.6 mph 47 % 0 in
14:56 76.6 °F 55.6 °F 30.1 in SW 10.4 mph 10.4 mph 48 % 0 in
15:01 75.7 °F 54.7 °F 30.1 in WSW 9.2 mph 9.2 mph 48 % 0 in
15:06 76.3 °F 55 °F 30.1 in South 6.9 mph 6.9 mph 48 % 0 in
15:11 75.7 °F 54.7 °F 30.1 in SW 8.1 mph 8.1 mph 48 % 0 in
15:16 76.8 °F 55.6 °F 30.1 in WSW 5.9 mph 5.9 mph 48 % 0 in
15:21 77 °F 55.2 °F 30.1 in SW 6.2 mph 6.2 mph 47 % 0 in
15:26 76.8 °F 55 °F 30.1 in SW 11.5 mph 11.5 mph 47 % 0 in
15:31 77.7 °F 55.2 °F 30.1 in South 4.6 mph 4.6 mph 46 % 0 in
15:36 78.3 °F 55.8 °F 30.1 in West 5.8 mph 5.8 mph 46 % 0 in
15:41 78.3 °F 55.8 °F 30.1 in SW 8.1 mph 8.1 mph 46 % 0 in
15:46 77.5 °F 54.5 °F 30.1 in SW 5.8 mph 5.8 mph 45 % 0 in
15:51 78.1 °F 55 °F 30.1 in SW 8.1 mph 8.1 mph 45 % 0 in
15:56 78.1 °F 55 °F 30.1 in SSW 8.1 mph 8.1 mph 45 % 0 in
16:01 78.4 °F 55.2 °F 30.1 in WSW 7.8 mph 7.8 mph 45 % 0 in
16:06 78.1 °F 55 °F 30.1 in SSW 5.8 mph 7.8 mph 45 % 0 in
16:11 77.2 °F 53.6 °F 30.1 in SSW 12.7 mph 12.7 mph 44 % 0 in
16:16 77.7 °F 54.1 °F 30.1 in WSW 4.6 mph 4.6 mph 44 % 0 in
16:21 77.5 °F 54 °F 30.1 in WSW 9.2 mph 9.2 mph 44 % 0 in
16:26 76.8 °F 54 °F 30.1 in WSW 8.1 mph 8.1 mph 45 % 0 in
16:31 76.5 °F 53.4 °F 30.1 in SW 8.1 mph 8.1 mph 45 % 0 in
16:36 75.7 °F 52.9 °F 30.1 in SSW 4.3 mph 4.3 mph 45 % 0 in
16:41 75.4 °F 53.2 °F 30.1 in SW 9.2 mph 9.2 mph 46 % 0 in
16:46 75.2 °F 53.1 °F 30.1 in SW 6.2 mph 6.2 mph 46 % 0 in
16:51 75.2 °F 53.1 °F 30.1 in SSW 9.2 mph 9.2 mph 46 % 0 in
16:56 74.7 °F 53.1 °F 30.1 in West 8.1 mph 8.1 mph 47 % 0 in
17:01 74.7 °F 53.1 °F 30.1 in SSE 5.8 mph 5.8 mph 47 % 0 in
17:06 74.8 °F 53.2 °F 30.1 in South 3.5 mph 3.5 mph 47 % 0 in
17:11 74.3 °F 52.9 °F 30.1 in SSW 4.6 mph 4.6 mph 47 % 0 in
17:16 73.9 °F 53.1 °F 30.1 in SW 9.2 mph 9.2 mph 48 % 0 in
17:21 74.1 °F 53.2 °F 30.1 in SW 8.1 mph 8.1 mph 48 % 0 in
17:27 74.1 °F 53.2 °F 30.1 in SSW 10.4 mph 10.4 mph 48 % 0 in
17:32 74.3 °F 53.2 °F 30.1 in SW 5.8 mph 5.8 mph 48 % 0 in
17:37 74.5 °F 53.4 °F 30.1 in WSW 8.7 mph 8.7 mph 48 % 0 in
17:42 73.8 °F 53.4 °F 30.1 in SSW 5.8 mph 5.8 mph 49 % 0 in
17:47 73.6 °F 53.2 °F 30.1 in WSW 6.9 mph 6.9 mph 49 % 0 in
17:52 73 °F 53.2 °F 30.1 in SSW 9.2 mph 9.2 mph 50 % 0 in
17:57 72.7 °F 53.4 °F 30.1 in SSW 4.6 mph 4.6 mph 51 % 0 in
18:02 72.3 °F 53.2 °F 30.1 in SSW 6.9 mph 6.9 mph 51 % 0 in
18:07 72.3 °F 53.2 °F 30.1 in SW 4.6 mph 4.6 mph 51 % 0 in
18:12 72 °F 53.4 °F 30.1 in SW 6.2 mph 6.2 mph 52 % 0 in
18:17 71.6 °F 53.1 °F 30.1 in WSW 10.4 mph 10.4 mph 52 % 0 in
18:22 71.2 °F 53.2 °F 30.1 in SSW 9.4 mph 9.4 mph 53 % 0 in
18:27 70.9 °F 52.9 °F 30.1 in SSW 6.9 mph 6.9 mph 53 % 0 in
18:32 70.5 °F 53.1 °F 30.1 in West 5.8 mph 5.8 mph 54 % 0 in
18:37 70.3 °F 52.9 °F 30.1 in West 6 mph 6 mph 54 % 0 in
18:42 70.3 °F 53.4 °F 30.1 in WSW 3.5 mph 3.5 mph 55 % 0 in
18:47 70.2 °F 53.8 °F 30.1 in SSW 8.1 mph 8.1 mph 56 % 0 in
18:52 70 °F 53.6 °F 30.1 in SW 3.8 mph 3.8 mph 56 % 0 in
18:57 70 °F 54 °F 30.1 in SSW 4.6 mph 4.6 mph 57 % 0 in
19:02 70 °F 54 °F 30.1 in South 4.6 mph 4.6 mph 57 % 0 in
19:07 70 °F 54 °F 30.1 in SSW 5.8 mph 5.8 mph 57 % 0 in
19:12 70 °F 54 °F 30.1 in SSW 3.5 mph 3.5 mph 57 % 0 in
19:17 70.2 °F 54.1 °F 30.1 in SW 4.6 mph 4.6 mph 57 % 0 in
19:22 70.2 °F 54.7 °F 30.1 in WSW 2.3 mph 2.3 mph 58 % 0 in
19:25 66.6 °F 56.5 °F 30.2 in SW 1 mph 2 mph 70 % 0 in
19:27 70.2 °F 54.7 °F 30.1 in SW 3.6 mph 3.6 mph 58 % 0 in
19:32 70 °F 54.5 °F 30.1 in West 5.9 mph 5.9 mph 58 % 0 in
19:35 66.4 °F 56.3 °F 30.2 in SW 1 mph 2 mph 70 % 0 in
19:37 69.8 °F 54.3 °F 30.1 in SSE 3.5 mph 3.5 mph 58 % 0 in
19:42 69.6 °F 54.1 °F 30.1 in SSW 4.6 mph 4.6 mph 58 % 0 in
19:45 66.4 °F 56.7 °F 30.2 in SW 1 mph 1 mph 71 % 0 in
19:47 69.3 °F 54.3 °F 30.1 in SW 1.6 mph 1.6 mph 59 % 0 in
19:52 69.1 °F 54.1 °F 30.1 in SSW 2.3 mph 2.3 mph 59 % 0 in
19:55 66.4 °F 56.7 °F 30.2 in WSW 1 mph 1 mph 71 % 0 in
19:57 68.9 °F 54 °F 30.1 in WSW 2.3 mph 2.3 mph 59 % 0 in
20:02 68.9 °F 54.3 °F 30.1 in SSW 2.3 mph 2.3 mph 60 % 0 in
20:05 66.6 °F 56.8 °F 30.2 in Calm   1 mph 71 % 0 in
20:07 68.9 °F 54.3 °F 30.1 in WSW 2.6 mph 2.6 mph 60 % 0 in
20:12 68.9 °F 54.3 °F 30.1 in SW 1.2 mph   60 % 0 in
20:15 66.4 °F 56.7 °F 30.2 in Calm   2 mph 71 % 0 in
20:17 68.7 °F 54.7 °F 30.2 in WSW 2.3 mph 2.3 mph 61 % 0 in
20:22 68.7 °F 54.7 °F 30.2 in SW 2.3 mph 2.3 mph 61 % 0 in
20:25 66.4 °F 56.7 °F 30.2 in WSW 1 mph 1 mph 71 % 0 in
20:27 68.7 °F 54.7 °F 30.2 in SW 1.2 mph   61 % 0 in
20:32 68.7 °F 54.7 °F 30.2 in SW 5.8 mph 5.8 mph 61 % 0 in
20:35 66.4 °F 56.7 °F 30.2 in WSW 1 mph 2 mph 71 % 0 in
20:37 68.5 °F 54.7 °F 30.2 in SSW 2.9 mph 2.9 mph 61 % 0 in
20:42 68.5 °F 55 °F 30.2 in SW 2.9 mph 2.9 mph 62 % 0 in
20:45 66 °F 56.7 °F 30.2 in West 1 mph 3 mph 72 % 0 in
20:47 68.4 °F 54.9 °F 30.2 in SSW 4.6 mph 4.6 mph 62 % 0 in
20:52 68.2 °F 54.7 °F 30.2 in SW 2.3 mph 2.3 mph 62 % 0 in
20:55 65.7 °F 56.5 °F 30.2 in Calm   3 mph 72 % 0 in
20:57 68.2 °F 55 °F 30.2 in Calm     63 % 0 in
21:02 68.2 °F 55 °F 30.2 in SW 1.2 mph 1.2 mph 63 % 0 in
21:05 65.5 °F 56.1 °F 30.2 in Calm     72 % 0 in
21:07 68 °F 54.9 °F 30.2 in SW 3.5 mph 3.5 mph 63 % 0 in
21:12 68 °F 54.9 °F 30.2 in SW 2.3 mph 2.3 mph 63 % 0 in
21:15 65.1 °F 55.9 °F 30.2 in Calm     72 % 0 in
21:17 68 °F 55.4 °F 30.2 in SW 2.3 mph 2.3 mph 64 % 0 in
21:22 68 °F 55.4 °F 30.2 in SSW 1.2 mph   64 % 0 in
21:25 64.8 °F 55.9 °F 30.2 in Calm   1 mph 73 % 0 in
21:27 68 °F 55.4 °F 30.2 in WSW 1.4 mph 1.4 mph 64 % 0 in
21:32 67.8 °F 55.6 °F 30.2 in SW 2.3 mph 2.3 mph 65 % 0 in
21:35 64.4 °F 55.6 °F 30.2 in Calm     73 % 0 in
21:37 67.8 °F 55.9 °F 30.2 in SW 1.4 mph 1.4 mph 66 % 0 in
21:42 67.6 °F 55.9 °F 30.2 in WNW 2.2 mph 2.4 mph 66 % 0 in
21:45 64 °F 55.6 °F 30.2 in Calm     74 % 0 in
21:47 67.5 °F 55.2 °F 30.2 in SW 2.9 mph 2.9 mph 65 % 0 in
21:52 67.5 °F 55.8 °F 30.2 in WSW 2.3 mph 2.3 mph 66 % 0 in
21:55 63.7 °F 55.2 °F 30.2 in Calm     74 % 0 in
21:57 67.3 °F 55.9 °F 30.2 in SW 0.9 mph   67 % 0 in
22:02 67.1 °F 55.8 °F 30.2 in SW 1.4 mph 1.4 mph 67 % 0 in
22:05 63.5 °F 55.4 °F 30.2 in Calm     75 % 0 in
22:07 67.1 °F 55.8 °F 30.2 in SW 2.3 mph 2.3 mph 67 % 0 in
22:12 66.9 °F 55.6 °F 30.2 in SW 3.5 mph 3.5 mph 67 % 0 in
22:15 63.1 °F 55 °F 30.2 in WSW 1 mph 2 mph 75 % 0 in
22:17 66.7 °F 55.4 °F 30.2 in SW 1.2 mph 1.2 mph 67 % 0 in
22:22 66.7 °F 55.8 °F 30.2 in WSW 1.2 mph   68 % 0 in
22:25 63.1 °F 55.4 °F 30.2 in Calm     76 % 0 in
22:27 66.6 °F 55.8 °F 30.2 in WSW 1.2 mph   68 % 0 in
22:32 66.6 °F 55.8 °F 30.2 in West 1.2 mph   68 % 0 in
22:35 63.1 °F 55.4 °F 30.2 in Calm     76 % 0 in
22:37 66.6 °F 56.1 °F 30.2 in Calm     69 % 0 in
22:42 66.6 °F 56.1 °F 30.2 in WSW 1.2 mph 1.2 mph 69 % 0 in
22:45 62.6 °F 54.9 °F 30.2 in West 1 mph 2 mph 76 % 0 in
22:47 66.6 °F 56.1 °F 30.2 in West 1.2 mph   69 % 0 in
22:52 66.6 °F 56.1 °F 30.2 in Calm     69 % 0 in
22:55 62.6 °F 54.9 °F 30.2 in Calm   1 mph 76 % 0 in
22:57 66.6 °F 56.1 °F 30.2 in SW 1.2 mph   69 % 0 in
23:02 66.6 °F 56.1 °F 30.2 in West 1.2 mph 1.2 mph 69 % 0 in
23:05 62.2 °F 55.2 °F 30.2 in SSW 1 mph 1 mph 78 % 0 in
23:07 66.6 °F 56.1 °F 30.2 in WSW 2.3 mph 2.3 mph 69 % 0 in
23:12 66.7 °F 56.1 °F 30.2 in SW 2.3 mph 2.3 mph 69 % 0 in
23:15 62.2 °F 55.2 °F 30.2 in Calm   1 mph 78 % 0 in
23:17 66.7 °F 56.1 °F 30.2 in WSW 2.2 mph 2.2 mph 69 % 0 in
23:22 66.7 °F 56.7 °F 30.2 in WSW 1.6 mph 1.6 mph 70 % 0 in
23:25 62.1 °F 55 °F 30.2 in Calm     78 % 0 in
23:27 66.7 °F 56.7 °F 30.2 in SW 1.2 mph   70 % 0 in
23:32 66.6 °F 56.5 °F 30.2 in WNW 1.2 mph   70 % 0 in
23:35 62.2 °F 55.2 °F 30.2 in Calm   1 mph 78 % 0 in
23:37 66.6 °F 56.5 °F 30.2 in SW 2.3 mph 2.3 mph 70 % 0 in
23:42 66.6 °F 56.5 °F 30.2 in WSW 1.2 mph 1.2 mph 70 % 0 in
23:45 62.2 °F 55.6 °F 30.2 in Calm     79 % 0 in
23:47 66.6 °F 56.5 °F 30.2 in WSW 1.2 mph 1.2 mph 70 % 0 in
23:52 66.6 °F 56.5 °F 30.2 in WSW 1.2 mph   70 % 0 in
23:55 62.1 °F 55.6 °F 30.2 in Calm   2 mph 79 % 0 in
23:57 66.6 °F 56.5 °F 30.2 in SW 2.3 mph 2.3 mph 70 % 0 in
Meteo Sesrovires
Elogis d' Weather Underground - 3.75 mb

Guio original per  Jim McMurry - jmcmurry@mwt.net Adaptat per a la plantilla per  Wim van der Kuil - Leuven-Template.eu

Trobareu la nostra informacio del temps tambe a:

Weather Underground

AWEKAS